Time;durP1;ratioP1;P1;durP2;ratioP2;P2;SDS_P1;SDS_P2;PMS_P1;PMS_P2;Temp;Humidity;BMP_temperature;BMP_pressure;BME280_temperature;BME280_humidity;BME280_pressure;Samples;Min_cycle;Max_cycle;Signal;HPM_P1;HPM_P2
2022/09/09 00:01:55;;;;;;;9.45;6.75;;;12.20;99.90;;;;;;5067314;28;20062;-63
2022/09/09 00:04:25;;;;;;;36.60;6.90;;;12.30;99.90;;;;;;5064384;28;20417;-62
2022/09/09 00:07:05;;;;;;;14.98;6.95;;;12.10;99.90;;;;;;5055740;28;20533;-63
2022/09/09 00:09:45;;;;;;;11.70;7.50;;;12.20;99.90;;;;;;5056143;28;20085;-63
2022/09/09 00:12:42;;;;;;;10.15;7.07;;;12.20;99.90;;;;;;5055839;28;20381;-62
2022/09/09 00:15:14;;;;;;;11.82;6.28;;;12.20;99.90;;;;;;5053729;28;20094;-63
2022/09/09 00:18:00;;;;;;;10.52;5.55;;;12.20;99.90;;;;;;5058694;28;20749;-62
2022/09/09 00:20:40;;;;;;;14.90;5.53;;;12.30;99.90;;;;;;5055503;28;20064;-64
2022/09/09 00:23:28;;;;;;;7.90;5.90;;;12.20;99.90;;;;;;5041189;28;20064;-62
2022/09/09 00:26:23;;;;;;;7.28;5.82;;;12.30;99.90;;;;;;5066521;28;20049;-62
2022/09/09 00:29:12;;;;;;;8.05;5.50;;;12.10;99.90;;;;;;5065904;28;20036;-63
2022/09/09 00:31:38;;;;;;;9.23;6.75;;;12.10;99.90;;;;;;5049509;28;20120;-63
2022/09/09 00:34:14;;;;;;;9.52;7.03;;;12.00;99.90;;;;;;5060327;28;20051;-63
2022/09/09 00:36:41;;;;;;;12.23;7.10;;;12.20;99.90;;;;;;5059187;28;20037;-62
2022/09/09 00:39:16;;;;;;;14.40;9.18;;;12.00;99.90;;;;;;5060226;28;20040;-62
2022/09/09 00:42:09;;;;;;;14.90;9.25;;;12.20;99.90;;;;;;5066911;28;20115;-62
2022/09/09 00:44:37;;;;;;;21.92;10.15;;;12.40;99.90;;;;;;5059243;28;20068;-62
2022/09/09 00:47:30;;;;;;;19.05;10.95;;;12.20;99.90;;;;;;5058888;28;20156;-62
2022/09/09 00:50:11;;;;;;;19.48;10.70;;;12.40;99.90;;;;;;5055307;28;20037;-62
2022/09/09 00:53:02;;;;;;;17.75;10.68;;;12.30;99.90;;;;;;5057685;28;20060;-62
2022/09/09 00:55:49;;;;;;;19.58;10.68;;;12.30;99.90;;;;;;5059806;28;20066;-63
2022/09/09 00:58:14;;;;;;;20.20;11.52;;;12.40;99.90;;;;;;5060274;28;20082;-63
2022/09/09 01:00:48;;;;;;;18.27;10.95;;;12.40;99.90;;;;;;5058114;28;20029;-63
2022/09/09 01:03:39;;;;;;;23.60;11.88;;;12.40;99.90;;;;;;5056831;28;20037;-63
2022/09/09 01:06:22;;;;;;;18.15;10.95;;;12.40;99.90;;;;;;5058176;28;20139;-63
2022/09/09 01:08:57;;;;;;;23.25;12.27;;;12.60;99.90;;;;;;5059234;28;20040;-62
2022/09/09 01:11:26;;;;;;;24.17;11.68;;;12.60;99.90;;;;;;5038386;28;20052;-62
2022/09/09 01:14:16;;;;;;;21.48;11.40;;;12.50;99.90;;;;;;5062997;28;20119;-62
2022/09/09 01:16:44;;;;;;;23.00;10.80;;;12.60;99.90;;;;;;5059331;28;20051;-63
2022/09/09 01:19:18;;;;;;;19.83;12.05;;;12.50;99.90;;;;;;5054506;28;20041;-63
2022/09/09 01:21:55;;;;;;;20.52;10.40;;;12.50;99.90;;;;;;5049961;28;20045;-63
2022/09/09 01:24:36;;;;;;;23.25;11.60;;;12.40;99.90;;;;;;5054834;28;20820;-63
2022/09/09 01:27:04;;;;;;;23.08;11.93;;;12.60;99.90;;;;;;5054345;28;21557;-62
2022/09/09 01:29:30;;;;;;;19.73;11.07;;;12.50;99.90;;;;;;5054511;28;20090;-62
2022/09/09 01:32:02;;;;;;;25.48;12.23;;;12.40;99.90;;;;;;5061087;28;20128;-62
2022/09/09 01:34:33;;;;;;;23.08;11.00;;;12.50;99.90;;;;;;5051483;28;20065;-61
2022/09/09 01:37:08;;;;;;;22.40;11.77;;;12.80;99.90;;;;;;5055420;28;20505;-62
2022/09/09 01:39:35;;;;;;;21.35;12.13;;;12.90;99.90;;;;;;5067238;28;20041;-61
2022/09/09 01:42:03;;;;;;;22.38;11.38;;;12.80;99.90;;;;;;5064031;28;20056;-63
2022/09/09 01:44:30;;;;;;;21.75;11.32;;;13.10;99.90;;;;;;5063124;28;20025;-62
2022/09/09 01:46:55;;;;;;;20.52;11.52;;;12.90;99.90;;;;;;5066260;28;20353;-62
2022/09/09 01:49:21;;;;;;;25.15;11.73;;;13.10;99.90;;;;;;5066961;28;20066;-62
2022/09/09 01:51:51;;;;;;;23.88;11.52;;;13.20;99.90;;;;;;5051409;28;20039;-64
2022/09/09 01:54:18;;;;;;;23.30;11.82;;;13.10;99.90;;;;;;5061286;28;20413;-63
2022/09/09 01:57:11;;;;;;;26.65;12.15;;;13.10;99.90;;;;;;5043037;28;20040;-62
2022/09/09 01:59:56;;;;;;;26.20;12.30;;;13.20;99.90;;;;;;5035869;28;20098;-62
2022/09/09 02:03:00;;;;;;;20.98;11.15;;;13.20;99.90;;;;;;5048863;28;20124;-63
2022/09/09 02:05:26;;;;;;;32.72;13.23;;;13.20;99.90;;;;;;5060972;28;20061;-63
2022/09/09 02:08:17;;;;;;;28.00;13.25;;;13.40;99.90;;;;;;5064314;28;20059;-63
2022/09/09 02:11:00;;;;;;;24.38;11.95;;;13.30;99.90;;;;;;5061230;28;20045;-63
2022/09/09 02:13:26;;;;;;;24.23;12.48;;;13.40;99.90;;;;;;5063726;28;20037;-64
2022/09/09 02:16:04;;;;;;;22.30;11.68;;;13.30;99.90;;;;;;5065514;28;20102;-62
2022/09/09 02:18:41;;;;;;;25.75;12.10;;;13.30;99.90;;;;;;5067312;28;20128;-62
2022/09/09 02:21:07;;;;;;;29.48;13.10;;;13.30;99.90;;;;;;5063148;28;20040;-63
2022/09/09 02:23:34;;;;;;;28.73;12.60;;;13.30;99.90;;;;;;5061700;28;20093;-63
2022/09/09 02:26:03;;;;;;;30.08;11.90;;;13.30;99.90;;;;;;5066102;28;20072;-62
2022/09/09 02:28:32;;;;;;;23.38;12.32;;;13.40;99.90;;;;;;5059454;28;20499;-62
2022/09/09 02:30:59;;;;;;;28.13;12.75;;;13.40;99.90;;;;;;5058802;28;20098;-62
2022/09/09 02:33:28;;;;;;;26.60;12.73;;;13.40;99.90;;;;;;5065727;28;20365;-62
2022/09/09 02:35:56;;;;;;;22.92;11.57;;;13.50;99.90;;;;;;5062296;28;20190;-63
2022/09/09 02:38:26;;;;;;;21.00;11.07;;;13.50;99.90;;;;;;5062308;28;20483;-63
2022/09/09 02:40:52;;;;;;;32.80;12.57;;;13.50;99.90;;;;;;5068227;28;20047;-63
2022/09/09 02:43:18;;;;;;;31.17;12.38;;;13.50;99.90;;;;;;5072278;28;20037;-63
2022/09/09 02:46:07;;;;;;;24.95;11.77;;;13.60;99.90;;;;;;5071834;28;20055;-64
2022/09/09 02:48:45;;;;;;;20.40;11.70;;;13.70;99.90;;;;;;5070206;28;20434;-64
2022/09/09 02:52:00;;;;;;;22.20;11.27;;;13.70;99.90;;;;;;5035583;28;20435;-64
2022/09/09 02:54:30;;;;;;;31.35;12.02;;;13.70;99.90;;;;;;5058540;28;20118;-64
2022/09/09 02:57:13;;;;;;;23.58;10.93;;;13.80;99.90;;;;;;5064485;28;20119;-63
2022/09/09 02:59:39;;;;;;;21.95;11.40;;;13.60;99.90;;;;;;5070721;28;20573;-63
2022/09/09 03:02:05;;;;;;;24.45;11.75;;;13.90;99.90;;;;;;5068575;28;20041;-63
2022/09/09 03:04:31;;;;;;;21.10;11.30;;;13.70;99.90;;;;;;5065437;28;20468;-64
2022/09/09 03:06:58;;;;;;;18.73;10.23;;;13.90;99.90;;;;;;5065551;28;20041;-63
2022/09/09 03:09:23;;;;;;;35.80;11.88;;;13.70;99.90;;;;;;5049358;28;20044;-64
2022/09/09 03:11:49;;;;;;;21.15;10.43;;;13.90;99.90;;;;;;5042967;28;20037;-63
2022/09/09 03:14:16;;;;;;;19.85;9.70;;;13.80;99.90;;;;;;5038322;28;20464;-64
2022/09/09 03:16:42;;;;;;;19.10;9.30;;;13.80;99.90;;;;;;5059584;28;20044;-63
2022/09/09 03:19:08;;;;;;;16.77;8.63;;;14.00;99.90;;;;;;5054810;28;20493;-63
2022/09/09 03:21:34;;;;;;;20.73;9.35;;;14.00;99.90;;;;;;5047884;28;20029;-63
2022/09/09 03:23:59;;;;;;;18.85;9.02;;;13.70;99.90;;;;;;5062969;28;20469;-63
2022/09/09 03:26:25;;;;;;;17.73;9.05;;;13.90;99.90;;;;;;5034293;28;20048;-64
2022/09/09 03:28:51;;;;;;;17.70;8.68;;;13.90;99.90;;;;;;5058333;28;20033;-63
2022/09/09 03:31:19;;;;;;;19.90;9.32;;;13.80;99.90;;;;;;5054858;28;20040;-65
2022/09/09 03:33:44;;;;;;;21.10;10.82;;;14.00;99.90;;;;;;5048793;28;20037;-65
2022/09/09 03:36:10;;;;;;;17.17;9.77;;;13.90;99.90;;;;;;5050980;28;20106;-65
2022/09/09 03:38:36;;;;;;;22.30;10.82;;;13.70;99.90;;;;;;5058734;28;20084;-65
2022/09/09 03:41:03;;;;;;;21.85;10.18;;;13.80;99.90;;;;;;5055752;28;20037;-64
2022/09/09 03:43:29;;;;;;;20.58;10.13;;;13.90;99.90;;;;;;5053523;28;20043;-65
2022/09/09 03:45:58;;;;;;;22.58;10.50;;;14.00;99.90;;;;;;5058421;28;20046;-65
2022/09/09 03:48:25;;;;;;;24.90;10.50;;;13.80;99.90;;;;;;5057452;28;20032;-65
2022/09/09 03:50:52;;;;;;;19.85;9.43;;;13.70;99.90;;;;;;5054389;28;20495;-64
2022/09/09 03:53:21;;;;;;;18.88;10.65;;;14.00;99.90;;;;;;5035740;28;20074;-64
2022/09/09 03:55:48;;;;;;;17.95;9.27;;;13.80;99.90;;;;;;5065024;28;20109;-65
2022/09/09 03:58:15;;;;;;;17.52;9.40;;;13.90;99.90;;;;;;5057935;28;20056;-64
2022/09/09 04:00:44;;;;;;;18.05;10.30;;;13.90;99.90;;;;;;5059504;28;20090;-64
2022/09/09 04:03:10;;;;;;;19.48;10.30;;;14.00;99.90;;;;;;5062571;28;20119;-63
2022/09/09 04:05:39;;;;;;;19.20;10.65;;;13.80;99.90;;;;;;5055153;28;20055;-64
2022/09/09 04:08:06;;;;;;;20.52;9.65;;;13.80;99.90;;;;;;5055967;28;20035;-64
2022/09/09 04:10:31;;;;;;;20.60;11.50;;;13.70;99.90;;;;;;5059003;28;20033;-65
2022/09/09 04:12:57;;;;;;;23.90;11.57;;;13.70;99.90;;;;;;5054037;28;20047;-63
2022/09/09 04:15:22;;;;;;;23.65;11.85;;;13.90;99.90;;;;;;5051953;28;20579;-65
2022/09/09 04:17:48;;;;;;;23.90;11.77;;;13.60;99.90;;;;;;5037480;28;20040;-65
2022/09/09 04:20:13;;;;;;;23.10;11.48;;;13.70;99.90;;;;;;5054965;28;20041;-64
2022/09/09 04:22:39;;;;;;;20.27;11.30;;;13.70;99.90;;;;;;5056002;28;20040;-63
2022/09/09 04:25:05;;;;;;;23.60;11.32;;;13.60;99.90;;;;;;5038093;28;20041;-64
2022/09/09 04:27:31;;;;;;;25.83;11.73;;;13.80;99.90;;;;;;5033636;28;20029;-65
2022/09/09 04:29:58;;;;;;;21.35;10.77;;;13.60;99.90;;;;;;5056340;28;20041;-66
2022/09/09 04:32:26;;;;;;;17.98;9.98;;;13.50;99.90;;;;;;5058696;28;20362;-64
2022/09/09 04:34:52;;;;;;;20.95;9.63;;;13.60;99.90;;;;;;5036703;28;20442;-63
2022/09/09 04:37:18;;;;;;;18.80;9.70;;;13.80;99.90;;;;;;5048890;28;20069;-65
2022/09/09 04:39:43;;;;;;;18.70;9.95;;;13.60;99.90;;;;;;5056901;28;20036;-64
2022/09/09 04:42:09;;;;;;;19.92;9.82;;;13.80;99.90;;;;;;5048629;28;20033;-64
2022/09/09 04:44:34;;;;;;;21.70;9.07;;;13.50;99.90;;;;;;5050670;28;20086;-65
2022/09/09 04:47:00;;;;;;;19.25;9.23;;;13.60;99.90;;;;;;5048022;28;20040;-65
2022/09/09 04:49:25;;;;;;;16.95;8.68;;;13.40;99.90;;;;;;5061027;28;20041;-64
2022/09/09 04:51:51;;;;;;;27.65;11.20;;;13.80;99.90;;;;;;5048240;28;20118;-64
2022/09/09 04:54:17;;;;;;;21.83;10.38;;;13.40;99.90;;;;;;5048394;28;20037;-64
2022/09/09 04:56:43;;;;;;;24.70;10.60;;;13.80;99.90;;;;;;5050564;28;20040;-65
2022/09/09 04:59:09;;;;;;;21.55;10.55;;;13.60;99.90;;;;;;5036694;28;20503;-63
2022/09/09 05:01:35;;;;;;;21.13;10.95;;;13.60;99.90;;;;;;5054435;28;20047;-64
2022/09/09 05:04:02;;;;;;;24.23;11.18;;;13.60;99.90;;;;;;5052092;28;20131;-64
2022/09/09 05:06:29;;;;;;;21.20;10.65;;;13.50;99.90;;;;;;5061701;28;20047;-62
2022/09/09 05:08:55;;;;;;;22.17;9.98;;;13.40;99.90;;;;;;5064046;28;20486;-64
2022/09/09 05:11:26;;;;;;;20.05;10.02;;;13.40;99.90;;;;;;5046509;28;20029;-63
2022/09/09 05:13:53;;;;;;;22.90;10.95;;;13.40;99.90;;;;;;5068550;28;20115;-63
2022/09/09 05:16:20;;;;;;;21.77;10.85;;;13.70;99.90;;;;;;5061336;28;20439;-65
2022/09/09 05:18:46;;;;;;;16.90;10.27;;;13.70;99.90;;;;;;5046866;28;20048;-63
2022/09/09 05:21:13;;;;;;;22.90;10.95;;;13.50;99.90;;;;;;5061663;28;20551;-64
2022/09/09 05:23:39;;;;;;;22.60;10.15;;;13.50;99.90;;;;;;5065106;28;20051;-62
2022/09/09 05:26:05;;;;;;;19.65;10.95;;;13.40;99.90;;;;;;5061602;28;20036;-63
2022/09/09 05:28:33;;;;;;;20.17;10.27;;;13.60;99.90;;;;;;5063829;28;20032;-64
2022/09/09 05:31:05;;;;;;;20.42;10.85;;;13.60;99.90;;;;;;5049984;28;20090;-63
2022/09/09 05:33:31;;;;;;;19.85;10.32;;;13.50;99.90;;;;;;5070326;28;20483;-64
2022/09/09 05:36:06;;;;;;;21.45;10.52;;;13.60;99.90;;;;;;5049728;28;20349;-63
2022/09/09 05:38:34;;;;;;;21.92;11.27;;;13.30;99.90;;;;;;5070058;28;20041;-62
2022/09/09 05:41:02;;;;;;;20.92;10.88;;;13.60;99.90;;;;;;5070823;28;20040;-62
2022/09/09 05:43:29;;;;;;;20.80;10.75;;;13.30;99.90;;;;;;5071246;28;20468;-61
2022/09/09 05:46:04;;;;;;;23.50;10.88;;;13.40;99.90;;;;;;5068623;28;20080;-64
2022/09/09 05:48:31;;;;;;;19.05;10.40;;;13.60;99.90;;;;;;5069002;28;20102;-64
2022/09/09 05:50:58;;;;;;;18.85;10.20;;;13.40;99.90;;;;;;5068980;28;20040;-64
2022/09/09 05:53:24;;;;;;;22.92;11.93;;;13.70;99.90;;;;;;5070773;28;20036;-62
2022/09/09 05:55:50;;;;;;;19.65;11.05;;;13.40;99.90;;;;;;5068287;28;20037;-63
2022/09/09 05:58:17;;;;;;;18.45;9.45;;;13.50;99.90;;;;;;5068296;28;20102;-63
2022/09/09 06:00:44;;;;;;;18.58;10.20;;;13.60;99.90;;;;;;5064239;28;20038;-61
2022/09/09 06:03:11;;;;;;;17.98;10.27;;;13.70;99.90;;;;;;5069532;28;20048;-63
2022/09/09 06:05:37;;;;;;;21.80;10.77;;;13.50;99.90;;;;;;5057607;28;20049;-63
2022/09/09 06:08:03;;;;;;;20.13;10.30;;;13.60;99.90;;;;;;5053450;28;20099;-62
2022/09/09 06:10:28;;;;;;;22.13;10.68;;;13.70;99.90;;;;;;5047983;28;20040;-64
2022/09/09 06:12:54;;;;;;;16.38;9.50;;;13.50;99.90;;;;;;5049278;28;20619;-62
2022/09/09 06:15:20;;;;;;;18.77;9.90;;;13.70;99.90;;;;;;5032979;28;20052;-62
2022/09/09 06:17:45;;;;;;;17.75;10.05;;;13.70;99.90;;;;;;5052894;28;20051;-61
2022/09/09 06:20:12;;;;;;;24.23;10.85;;;13.80;99.90;;;;;;5034990;28;20041;-63
2022/09/09 06:22:40;;;;;;;16.73;9.43;;;13.60;99.90;;;;;;5055297;28;20545;-63
2022/09/09 06:25:08;;;;;;;18.73;9.68;;;13.70;99.90;;;;;;5046541;28;20404;-63
2022/09/09 06:27:33;;;;;;;18.38;9.80;;;13.80;99.90;;;;;;5050676;28;20091;-62
2022/09/09 06:29:59;;;;;;;17.33;9.48;;;13.90;99.90;;;;;;5051970;28;20042;-63
2022/09/09 06:32:26;;;;;;;16.38;9.55;;;14.00;99.90;;;;;;5050741;28;20078;-63
2022/09/09 06:34:52;;;;;;;16.10;9.30;;;13.80;99.90;;;;;;5031374;28;20646;-63
2022/09/09 06:37:17;;;;;;;14.57;9.25;;;14.20;99.90;;;;;;5032966;28;20037;-61
2022/09/09 06:39:43;;;;;;;14.00;8.27;;;14.00;99.90;;;;;;5054857;28;20590;-62
2022/09/09 06:42:08;;;;;;;13.95;8.27;;;14.30;99.90;;;;;;5051469;28;20048;-63
2022/09/09 06:44:34;;;;;;;14.55;8.35;;;14.00;99.90;;;;;;5050482;28;20065;-62
2022/09/09 06:46:59;;;;;;;13.30;8.10;;;14.30;99.90;;;;;;5050682;28;20094;-62
2022/09/09 06:49:25;;;;;;;13.82;8.10;;;14.30;99.90;;;;;;5049159;28;20614;-62
2022/09/09 06:51:51;;;;;;;10.85;7.22;;;14.40;99.90;;;;;;5047689;28;20033;-62
2022/09/09 06:54:18;;;;;;;12.85;7.00;;;14.00;99.90;;;;;;5050742;28;20072;-62
2022/09/09 06:56:45;;;;;;;14.80;7.93;;;14.40;99.90;;;;;;5047421;28;20044;-63
2022/09/09 06:59:11;;;;;;;13.77;8.27;;;14.10;99.90;;;;;;5049651;28;20484;-61
2022/09/09 07:01:43;;;;;;;12.07;7.50;;;14.50;99.90;;;;;;5052392;28;20424;-61
2022/09/09 07:04:10;;;;;;;13.18;7.88;;;14.60;99.90;;;;;;5052049;28;20060;-61
2022/09/09 07:06:46;;;;;;;15.10;7.57;;;14.30;99.90;;;;;;5052162;28;20044;-61
2022/09/09 07:09:14;;;;;;;11.13;7.10;;;14.40;99.90;;;;;;5051000;28;20058;-62
2022/09/09 07:11:46;;;;;;;11.50;7.25;;;14.40;99.90;;;;;;5048405;28;20102;-61
2022/09/09 07:14:13;;;;;;;14.25;7.68;;;14.40;99.90;;;;;;5071070;28;20476;-61
2022/09/09 07:16:40;;;;;;;11.80;7.03;;;14.70;99.90;;;;;;5072040;28;20051;-62
2022/09/09 07:19:06;;;;;;;9.73;7.50;;;14.60;99.90;;;;;;5052254;28;20032;-63
2022/09/09 07:21:32;;;;;;;14.23;7.60;;;14.70;99.90;;;;;;5062969;28;20109;-62
2022/09/09 07:23:59;;;;;;;9.10;6.57;;;14.70;99.90;;;;;;5050554;28;20127;-62
2022/09/09 07:26:27;;;;;;;9.82;6.03;;;14.60;99.90;;;;;;5066371;28;20364;-62
2022/09/09 07:28:53;;;;;;;10.18;6.43;;;14.60;99.90;;;;;;5071496;28;20036;-62
2022/09/09 07:31:22;;;;;;;14.48;8.10;;;14.60;99.90;;;;;;5067717;28;20479;-62
2022/09/09 07:33:48;;;;;;;11.20;6.35;;;15.00;99.90;;;;;;5071748;28;20091;-63
2022/09/09 07:36:17;;;;;;;12.80;7.03;;;15.10;99.90;;;;;;5061831;28;20037;-63
2022/09/09 07:38:47;;;;;;;10.98;5.95;;;14.80;99.90;;;;;;5074577;28;20033;-62
2022/09/09 07:41:17;;;;;;;7.85;6.20;;;14.80;99.90;;;;;;5053291;28;20084;-62
2022/09/09 07:43:44;;;;;;;13.18;6.38;;;15.00;99.90;;;;;;5073389;28;20078;-62
2022/09/09 07:46:12;;;;;;;10.15;6.18;;;15.30;99.90;;;;;;5070846;28;20079;-62
2022/09/09 07:48:43;;;;;;;8.77;5.53;;;15.60;99.90;;;;;;5056180;28;20060;-63
2022/09/09 07:51:16;;;;;;;;;;;15.70;99.90;;;;;;5070604;28;20044;-63
2022/09/09 07:53:42;;;;;;;13.98;6.55;;;16.00;99.90;;;;;;5054483;28;19916;-63
2022/09/09 07:56:14;;;;;;;8.60;5.50;;;15.90;99.90;;;;;;5072455;28;20043;-62
2022/09/09 07:58:40;;;;;;;10.63;5.30;;;15.80;99.90;;;;;;5073343;28;20448;-62
2022/09/09 08:01:11;;;;;;;8.23;5.10;;;15.80;99.90;;;;;;5068525;28;20488;-62
2022/09/09 08:03:37;;;;;;;11.57;6.18;;;16.10;99.90;;;;;;5046827;28;20090;-63
2022/09/09 08:06:06;;;;;;;9.65;5.03;;;16.20;99.90;;;;;;5070589;28;20495;-62
2022/09/09 08:08:33;;;;;;;12.43;5.45;;;16.10;99.90;;;;;;5066835;28;20036;-62
2022/09/09 08:11:04;;;;;;;8.63;5.10;;;16.10;99.90;;;;;;5064867;28;20411;-62
2022/09/09 08:13:31;;;;;;;9.05;4.85;;;16.40;99.90;;;;;;5057875;28;20037;-62
2022/09/09 08:16:04;;;;;;;7.35;4.57;;;16.30;99.90;;;;;;5063829;28;20377;-63
2022/09/09 08:18:30;;;;;;;8.63;5.05;;;16.70;99.90;;;;;;5054653;28;20167;-63
2022/09/09 08:20:55;;;;;;;7.07;5.43;;;16.40;99.90;;;;;;5065961;28;20135;-62
2022/09/09 08:23:21;;;;;;;9.45;5.38;;;16.40;99.90;;;;;;5068733;28;20044;-62
2022/09/09 08:25:48;;;;;;;8.07;5.32;;;16.10;99.90;;;;;;5070631;28;20060;-61
2022/09/09 08:28:14;;;;;;;8.70;4.90;;;16.00;99.90;;;;;;5065895;28;20063;-62
2022/09/09 08:30:39;;;;;;;10.80;4.95;;;16.20;99.90;;;;;;5062738;28;20102;-62
2022/09/09 08:33:05;;;;;;;7.13;4.63;;;16.60;99.90;;;;;;5050803;28;20558;-61
2022/09/09 08:35:32;;;;;;;9.25;4.68;;;17.50;99.90;;;;;;5049601;28;20033;-62
2022/09/09 08:37:57;;;;;;;6.60;4.05;;;17.40;99.90;;;;;;5068647;28;20162;-62
2022/09/09 08:40:33;;;;;;;12.30;5.18;;;17.80;99.90;;;;;;5070577;28;20127;-63
2022/09/09 08:43:01;;;;;;;11.77;4.28;;;18.00;99.90;;;;;;5070864;28;20044;-62
2022/09/09 08:45:34;;;;;;;8.52;4.40;;;18.20;99.90;;;;;;5067893;28;20471;-61
2022/09/09 08:48:12;;;;;;;6.93;3.88;;;17.40;99.90;;;;;;5069510;28;20117;-62
2022/09/09 08:50:40;;;;;;;7.97;4.10;;;17.60;99.90;;;;;;5069110;28;20487;-62
2022/09/09 08:53:11;;;;;;;7.72;4.13;;;17.40;99.90;;;;;;5069889;28;20119;-63
2022/09/09 08:55:48;;;;;;;8.57;4.28;;;17.90;99.90;;;;;;5070783;28;20051;-64
2022/09/09 08:58:23;;;;;;;7.35;3.90;;;17.80;99.90;;;;;;5066977;28;20048;-63
2022/09/09 09:01:07;;;;;;;11.00;4.30;;;17.90;99.90;;;;;;5067023;28;20040;-63
2022/09/09 09:03:57;;;;;;;4.97;3.63;;;17.40;99.90;;;;;;5070814;28;20544;-63
2022/09/09 09:06:36;;;;;;;7.18;3.63;;;18.10;99.90;;;;;;5069085;28;20092;-62
2022/09/09 09:09:15;;;;;;;6.50;3.40;;;18.10;99.90;;;;;;5072590;28;20087;-63
2022/09/09 09:11:49;;;;;;;7.33;3.80;;;18.30;99.90;;;;;;5070900;28;20036;-61
2022/09/09 09:14:24;;;;;;;7.20;3.75;;;18.30;99.90;;;;;;5071688;28;20040;-63
2022/09/09 09:16:52;;;;;;;6.57;3.65;;;18.20;99.90;;;;;;5070253;28;20036;-61
2022/09/09 09:19:18;;;;;;;9.38;3.90;;;18.20;99.90;;;;;;5070457;28;20044;-63
2022/09/09 09:21:51;;;;;;;10.80;3.92;;;17.90;99.90;;;;;;5067428;28;20044;-62
2022/09/09 09:24:26;;;;;;;9.20;3.80;;;18.00;99.90;;;;;;5066698;28;20127;-63
2022/09/09 09:26:52;;;;;;;7.10;3.50;;;17.80;99.90;;;;;;5062162;28;20037;-61
2022/09/09 09:29:21;;;;;;;11.63;3.50;;;17.70;99.90;;;;;;5051141;28;20037;-62
2022/09/09 09:31:51;;;;;;;9.73;3.67;;;17.70;99.90;;;;;;5052857;28;20029;-62
2022/09/09 09:34:17;;;;;;;11.77;3.83;;;17.80;99.90;;;;;;5069201;28;20033;-61
2022/09/09 09:37:03;;;;;;;9.90;2.90;;;17.80;99.90;;;;;;5062450;28;20059;-61
2022/09/09 09:39:39;;;;;;;9.77;3.40;;;17.60;99.90;;;;;;5055041;28;20045;-63
2022/09/09 09:42:17;;;;;;;8.52;3.15;;;17.80;99.90;;;;;;5070902;28;20064;-61
2022/09/09 09:44:43;;;;;;;8.52;3.83;;;17.80;99.90;;;;;;5065783;28;20383;-62
2022/09/09 09:47:16;;;;;;;6.95;3.38;;;17.80;99.90;;;;;;5051774;28;20455;-61
2022/09/09 09:49:58;;;;;;;12.07;3.53;;;17.90;99.90;;;;;;5052060;28;20071;-61
2022/09/09 09:52:26;;;;;;;8.68;3.17;;;17.90;99.90;;;;;;5073072;28;20039;-62
2022/09/09 09:54:53;;;;;;;7.72;2.75;;;18.10;99.90;;;;;;5071097;28;20033;-62
2022/09/09 09:57:25;;;;;;;8.43;2.83;;;18.20;99.90;;;;;;5052528;28;20071;-62
2022/09/09 10:00:11;;;;;;;8.52;2.85;;;18.50;99.90;;;;;;5055315;28;20055;-61
2022/09/09 10:02:40;;;;;;;8.80;3.17;;;18.60;99.90;;;;;;5070050;28;20044;-61
2022/09/09 10:05:29;;;;;;;6.35;3.00;;;18.60;99.90;;;;;;5072810;28;20063;-61
2022/09/09 10:08:05;;;;;;;9.63;2.85;;;18.90;99.90;;;;;;5066292;28;20079;-61
2022/09/09 10:10:44;;;;;;;5.97;2.67;;;18.60;99.90;;;;;;5072923;28;20044;-63
2022/09/09 10:13:25;;;;;;;10.68;3.55;;;18.60;99.90;;;;;;5056585;28;20044;-61
2022/09/09 10:15:56;;;;;;;10.30;3.22;;;18.70;99.90;;;;;;5075140;28;20125;-61
2022/09/09 10:18:54;;;;;;;12.70;3.00;;;18.80;99.90;;;;;;5076000;28;20043;-61
2022/09/09 10:21:47;;;;;;;10.27;3.33;;;19.00;99.90;;;;;;5061984;28;20091;-62
2022/09/09 10:24:41;;;;;;;7.93;2.38;;;19.10;99.90;;;;;;5067719;28;20056;-62
2022/09/09 10:27:22;;;;;;;8.73;2.60;;;19.10;99.90;;;;;;5037411;28;20041;-62
2022/09/09 10:30:19;;;;;;;7.90;2.92;;;19.00;99.90;;;;;;5054954;28;20049;-61
2022/09/09 10:32:55;;;;;;;5.20;2.00;;;19.10;99.90;;;;;;5048789;28;20039;-61
2022/09/09 10:35:20;;;;;;;8.48;2.63;;;19.00;99.90;;;;;;5072303;28;20055;-62
2022/09/09 10:38:11;;;;;;;8.63;2.38;;;19.20;99.90;;;;;;5074541;28;20044;-60
2022/09/09 10:40:51;;;;;;;8.45;2.17;;;19.20;99.90;;;;;;5066666;28;20481;-61
2022/09/09 10:43:19;;;;;;;6.25;2.05;;;19.30;99.90;;;;;;5062485;28;20064;-62
2022/09/09 10:46:03;;;;;;;5.88;1.85;;;19.30;99.90;;;;;;5073352;28;20047;-61
2022/09/09 10:49:00;;;;;;;7.88;2.40;;;19.50;99.90;;;;;;5075102;28;20048;-63
2022/09/09 10:51:56;;;;;;;6.75;2.28;;;19.60;99.90;;;;;;5071813;28;20040;-62
2022/09/09 10:54:27;;;;;;;6.05;1.90;;;19.80;99.90;;;;;;5074549;28;20036;-63
2022/09/09 10:57:01;;;;;;;6.07;1.90;;;19.90;99.90;;;;;;5057119;28;20119;-62
2022/09/09 10:59:38;;;;;;;6.68;2.13;;;19.70;99.90;;;;;;5072117;28;20072;-62
2022/09/09 11:02:12;;;;;;;8.45;2.30;;;19.80;99.90;;;;;;5044136;28;20044;-63
2022/09/09 11:04:56;;;;;;;6.03;2.13;;;19.80;99.90;;;;;;5063178;28;20048;-61
2022/09/09 11:07:33;;;;;;;8.77;2.00;;;19.80;99.90;;;;;;5039929;28;20044;-63
2022/09/09 11:10:06;;;;;;;6.53;2.17;;;19.90;99.90;;;;;;5034838;28;20084;-62
2022/09/09 11:12:36;;;;;;;6.25;1.80;;;20.20;99.90;;;;;;5042338;28;20131;-63
2022/09/09 11:15:07;;;;;;;5.30;2.17;;;20.40;99.90;;;;;;5039753;28;20048;-63
2022/09/09 11:17:42;;;;;;;7.43;1.92;;;20.20;99.90;;;;;;5042365;28;20041;-63
2022/09/09 11:20:12;;;;;;;5.10;1.90;;;20.20;99.90;;;;;;5037517;28;20061;-63
2022/09/09 11:22:50;;;;;;;2.75;1.55;;;20.20;99.90;;;;;;5032914;28;20379;-62
2022/09/09 11:25:34;;;;;;;8.20;1.95;;;20.00;99.90;;;;;;5048766;28;20493;-61
2022/09/09 11:28:06;;;;;;;9.70;1.63;;;20.00;99.90;;;;;;5033919;28;20041;-62
2022/09/09 11:31:08;;;;;;;9.50;1.90;;;20.00;99.90;;;;;;5049898;28;20037;-63
2022/09/09 11:33:51;;;;;;;4.30;1.55;;;20.00;99.90;;;;;;5049122;28;20040;-63
2022/09/09 11:36:34;;;;;;;7.15;1.80;;;20.00;99.90;;;;;;5046804;28;20041;-62
2022/09/09 11:39:39;;;;;;;7.25;1.85;;;20.20;99.90;;;;;;5051695;28;20041;-61
2022/09/09 11:42:14;;;;;;;3.53;1.65;;;20.10;99.90;;;;;;5043015;28;20417;-64
2022/09/09 11:44:41;;;;;;;5.18;1.60;;;20.20;99.90;;;;;;5050793;28;20404;-62
2022/09/09 11:47:23;;;;;;;8.50;1.65;;;20.30;99.90;;;;;;5030619;28;20048;-62
2022/09/09 11:49:49;;;;;;;5.72;1.60;;;20.40;99.90;;;;;;5041868;28;21504;-62
2022/09/09 11:52:36;;;;;;;5.68;1.50;;;20.30;99.90;;;;;;5031691;28;20040;-63
2022/09/09 11:55:30;;;;;;;6.35;1.40;;;20.30;99.90;;;;;;5048105;28;20733;-62
2022/09/09 11:58:11;;;;;;;7.78;1.73;;;20.60;99.60;;;;;;5031806;28;20053;-62
2022/09/09 12:00:44;;;;;;;4.45;1.45;;;20.80;99.90;;;;;;5033301;28;20037;-62
2022/09/09 12:03:28;;;;;;;3.42;1.60;;;20.80;99.50;;;;;;5051921;28;20040;-62
2022/09/09 12:05:55;;;;;;;5.95;1.38;;;20.80;99.90;;;;;;5062861;28;20061;-62
2022/09/09 12:08:27;;;;;;;5.68;1.52;;;20.80;99.90;;;;;;5073588;28;20040;-62
2022/09/09 12:10:59;;;;;;;5.15;1.90;;;20.90;99.90;;;;;;5071710;28;20445;-63
2022/09/09 12:13:26;;;;;;;7.18;1.52;;;21.00;99.90;;;;;;5053920;28;20040;-62
2022/09/09 12:15:54;;;;;;;4.80;1.45;;;21.00;99.90;;;;;;5065814;28;20098;-62
2022/09/09 12:18:33;;;;;;;4.78;1.40;;;21.20;99.90;;;;;;5069228;28;20036;-61
2022/09/09 12:21:16;;;;;;;4.55;1.45;;;21.30;99.90;;;;;;5070047;28;20070;-63
2022/09/09 12:23:52;;;;;;;4.75;1.70;;;21.50;99.90;;;;;;5055496;28;20056;-62
2022/09/09 12:26:36;;;;;;;6.18;1.55;;;21.60;99.90;;;;;;5068761;28;20090;-63
2022/09/09 12:29:29;;;;;;;3.90;1.50;;;21.70;99.90;;;;;;5071300;28;20135;-63
2022/09/09 12:32:12;;;;;;;5.10;1.10;;;21.70;99.90;;;;;;5070254;28;20036;-63
2022/09/09 12:34:41;;;;;;;6.80;1.40;;;21.60;96.90;;;;;;5067999;28;20115;-63
2022/09/09 12:37:37;;;;;;;3.45;1.20;;;21.50;99.90;;;;;;5069213;28;20032;-63
2022/09/09 12:40:22;;;;;;;4.55;1.23;;;21.50;99.20;;;;;;5053466;28;20109;-63
2022/09/09 12:42:48;;;;;;;4.50;1.23;;;22.40;97.20;;;;;;5070007;28;20078;-63
2022/09/09 12:45:24;;;;;;;4.03;1.10;;;22.10;99.90;;;;;;5071125;28;20032;-62
2022/09/09 12:47:58;;;;;;;7.40;1.27;;;22.00;95.90;;;;;;5070355;28;20594;-63
2022/09/09 12:50:27;;;;;;;5.15;1.45;;;21.80;98.50;;;;;;5068596;28;20135;-63
2022/09/09 12:53:03;;;;;;;4.07;1.05;;;22.00;98.40;;;;;;5067568;28;20032;-63
2022/09/09 12:55:33;;;;;;;2.83;1.08;;;23.00;97.20;;;;;;5067933;28;20040;-63
2022/09/09 12:58:00;;;;;;;4.63;1.17;;;23.20;96.40;;;;;;5049723;28;20036;-63
2022/09/09 13:00:26;;;;;;;5.95;1.73;;;24.00;94.70;;;;;;5050979;28;20049;-63
2022/09/09 13:02:53;;;;;;;4.43;1.45;;;24.20;92.40;;;;;;5071055;28;20039;-62
2022/09/09 13:05:42;;;;;;;3.90;1.30;;;22.90;91.80;;;;;;5067286;28;20106;-63